createdAt,value
2018-11-11T00:01:01.649Z,412.43
2018-11-11T00:03:32.159Z,381.03
2018-11-11T00:06:02.673Z,373.93
2018-11-11T00:08:33.240Z,389.10
2018-11-11T00:11:03.781Z,351.47
2018-11-11T00:13:34.220Z,322.93
2018-11-11T00:16:04.698Z,308.50
2018-11-11T00:18:35.379Z,332.30
2018-11-11T00:21:05.980Z,317.73
2018-11-11T00:23:36.488Z,328.30
2018-11-11T00:26:07.097Z,358.33
2018-11-11T00:28:37.644Z,368.40
2018-11-11T00:31:08.063Z,357.07
2018-11-11T00:33:38.927Z,349.97
2018-11-11T00:36:09.433Z,324.07
2018-11-11T00:38:39.923Z,314.63
2018-11-11T00:41:10.451Z,289.53
2018-11-11T00:43:41.024Z,306.40
2018-11-11T00:46:11.522Z,292.07
2018-11-11T00:48:41.962Z,279.90
2018-11-11T00:51:12.480Z,289.33
2018-11-11T00:53:43.027Z,294.50
2018-11-11T00:56:13.580Z,288.17
2018-11-11T00:58:44.246Z,298.10
2018-11-11T01:01:14.651Z,315.37
2018-11-11T01:03:45.166Z,338.27
2018-11-11T01:06:15.675Z,336.03
2018-11-11T01:08:46.156Z,313.77
2018-11-11T01:11:16.653Z,312.30
2018-11-11T01:13:47.229Z,302.13
2018-11-11T01:16:17.766Z,326.87
2018-11-11T01:18:48.291Z,319.03
2018-11-11T01:21:18.792Z,316.00
2018-11-11T01:23:49.258Z,320.80
2018-11-11T01:26:19.726Z,349.70
2018-11-11T01:28:50.204Z,325.60
2018-11-11T01:31:20.667Z,347.20
2018-11-11T01:33:51.162Z,323.53
2018-11-11T01:36:21.639Z,337.17
2018-11-11T01:38:52.262Z,329.27
2018-11-11T01:41:22.802Z,327.67
2018-11-11T01:43:53.333Z,328.53
2018-11-11T01:46:23.778Z,348.40
2018-11-11T01:48:54.292Z,322.23
2018-11-11T01:51:24.775Z,341.57
2018-11-11T01:53:55.249Z,366.47
2018-11-11T01:56:25.760Z,349.63
2018-11-11T01:58:56.308Z,383.33
2018-11-11T02:01:26.816Z,362.63
2018-11-11T02:03:57.303Z,373.53
2018-11-11T02:06:27.854Z,362.00
2018-11-11T02:08:58.335Z,355.63
2018-11-11T02:11:28.823Z,381.27
2018-11-11T02:13:59.278Z,367.83
2018-11-11T02:16:29.735Z,400.57
2018-11-11T02:19:00.195Z,423.60
2018-11-11T02:21:30.957Z,614.20
2018-11-11T02:24:01.405Z,502.43
2018-11-11T02:26:32.431Z,479.87
2018-11-11T02:29:02.925Z,472.17
2018-11-11T02:31:33.439Z,447.03
2018-11-11T02:34:03.956Z,482.17
2018-11-11T02:36:34.489Z,428.97
2018-11-11T02:39:04.998Z,455.80
2018-11-11T02:41:35.526Z,471.53
2018-11-11T02:44:06.085Z,450.27
2018-11-11T02:46:36.628Z,438.33
2018-11-11T02:49:07.220Z,452.67
2018-11-11T02:51:37.963Z,419.77
2018-11-11T02:54:08.452Z,392.63
2018-11-11T02:56:38.960Z,390.23
2018-11-11T02:59:09.665Z,375.67
2018-11-11T03:01:40.149Z,363.77
2018-11-11T03:04:10.732Z,371.60
2018-11-11T03:06:41.120Z,350.40
2018-11-11T03:09:12.780Z,341.50
2018-11-11T03:11:43.226Z,355.70
2018-11-11T03:14:13.707Z,367.33
2018-11-11T03:16:44.190Z,389.43
2018-11-11T03:19:14.777Z,404.43
2018-11-11T03:21:45.372Z,418.03
2018-11-11T03:24:15.803Z,432.80
2018-11-11T03:26:46.343Z,419.83
2018-11-11T03:29:16.895Z,436.93
2018-11-11T03:31:47.511Z,450.17
2018-11-11T03:34:17.992Z,472.10
2018-11-11T03:36:48.491Z,514.80
2018-11-11T03:39:18.989Z,480.77
2018-11-11T03:41:49.443Z,492.97
2018-11-11T03:44:20.033Z,469.20
2018-11-11T03:46:50.490Z,455.70
2018-11-11T03:49:21.004Z,528.60
2018-11-11T03:51:51.550Z,517.10
2018-11-11T03:54:22.097Z,420.33
2018-11-11T03:56:52.593Z,438.07
2018-11-11T03:59:23.102Z,435.20
2018-11-11T04:01:53.633Z,451.80
2018-11-11T04:04:24.251Z,461.77
2018-11-11T04:06:54.776Z,559.40
2018-11-11T04:09:25.315Z,514.23
2018-11-11T04:11:55.846Z,514.63
2018-11-11T04:14:26.513Z,483.00
2018-11-11T04:16:56.874Z,532.93
2018-11-11T04:19:27.388Z,507.53
2018-11-11T04:21:57.892Z,477.70
2018-11-11T04:24:28.371Z,531.47
2018-11-11T04:26:58.942Z,468.50
2018-11-11T04:29:29.447Z,459.37
2018-11-11T04:31:59.969Z,380.37
2018-11-11T04:34:30.428Z,387.70
2018-11-11T04:37:00.922Z,402.07
2018-11-11T04:39:31.395Z,404.80
2018-11-11T04:42:01.974Z,506.00
2018-11-11T04:44:32.443Z,401.07
2018-11-11T04:47:02.919Z,380.47
2018-11-11T04:49:33.388Z,368.10
2018-11-11T04:52:03.895Z,333.20
2018-11-11T04:54:34.335Z,446.87
2018-11-11T04:57:04.894Z,612.10
2018-11-11T04:59:35.441Z,478.97
2018-11-11T05:02:05.920Z,533.47
2018-11-11T05:04:36.420Z,510.53
2018-11-11T05:07:07.501Z,426.23
2018-11-11T05:09:38.016Z,587.27
2018-11-11T05:12:08.510Z,521.53
2018-11-11T05:14:39.016Z,591.67
2018-11-11T05:17:09.494Z,508.37
2018-11-11T05:19:39.963Z,661.23
2018-11-11T05:22:10.578Z,557.67
2018-11-11T05:24:41.037Z,493.97
2018-11-11T05:27:11.508Z,502.27
2018-11-11T05:29:42.117Z,591.47
2018-11-11T05:32:12.495Z,530.00
2018-11-11T05:34:42.989Z,515.10
2018-11-11T05:37:13.768Z,514.80
2018-11-11T05:39:44.165Z,513.73
2018-11-11T05:42:14.627Z,499.07
2018-11-11T05:44:45.120Z,521.03
2018-11-11T05:47:15.625Z,563.30
2018-11-11T05:49:46.205Z,532.00
2018-11-11T05:52:16.665Z,429.77
2018-11-11T05:54:47.228Z,397.33
2018-11-11T05:57:17.821Z,368.47
2018-11-11T05:59:48.303Z,373.30
2018-11-11T06:02:18.817Z,411.47
2018-11-11T06:04:49.363Z,484.17
2018-11-11T06:07:19.865Z,418.93
2018-11-11T06:09:50.540Z,521.13
2018-11-11T06:12:21.006Z,443.83
2018-11-11T06:14:51.470Z,589.33
2018-11-11T06:17:21.950Z,576.10
2018-11-11T06:19:52.439Z,518.53
2018-11-11T06:22:22.987Z,744.03
2018-11-11T06:24:53.506Z,543.20
2018-11-11T06:27:24.120Z,587.90
2018-11-11T06:29:54.629Z,622.50
2018-11-11T06:32:25.132Z,590.17
2018-11-11T06:34:55.604Z,705.40
2018-11-11T06:37:26.123Z,704.33
2018-11-11T06:39:56.619Z,680.70
2018-11-11T06:42:27.222Z,647.83
2018-11-11T06:44:57.739Z,685.07
2018-11-11T06:47:28.295Z,616.83
2018-11-11T06:49:58.798Z,640.53
2018-11-11T06:52:29.312Z,708.53
2018-11-11T06:54:59.812Z,617.27
2018-11-11T06:57:30.350Z,601.93
2018-11-11T07:00:00.913Z,652.70
2018-11-11T07:02:41.472Z,561.07
2018-11-11T07:05:11.920Z,620.07
2018-11-11T07:07:42.529Z,570.87
2018-11-11T07:10:12.872Z,861.90
2018-11-11T07:12:43.356Z,718.70
2018-11-11T07:15:13.820Z,649.33
2018-11-11T07:17:44.303Z,627.40
2018-11-11T07:20:15.092Z,582.27
2018-11-11T07:22:45.553Z,556.00
2018-11-11T07:25:16.031Z,575.03
2018-11-11T07:27:46.459Z,603.70
2018-11-11T07:30:16.946Z,612.83
2018-11-11T07:33:16.480Z,612.23
2018-11-11T07:35:47.926Z,537.07
2018-11-11T07:39:29.093Z,490.13
2018-11-11T07:41:59.851Z,554.03
2018-11-11T07:44:32.973Z,499.97
2018-11-11T07:47:03.640Z,552.10
2018-11-11T07:49:34.210Z,456.73
2018-11-11T07:52:05.014Z,487.20
2018-11-11T07:54:35.371Z,494.33
2018-11-11T07:57:05.898Z,463.13
2018-11-11T07:59:36.633Z,432.03
2018-11-11T08:02:08.930Z,339.47
2018-11-11T08:04:41.774Z,487.53
2018-11-11T08:07:12.311Z,456.00
2018-11-11T08:09:42.830Z,435.77
2018-11-11T08:12:13.377Z,385.33
2018-11-11T08:14:43.879Z,369.57
2018-11-11T08:17:14.573Z,381.73
2018-11-11T08:19:45.116Z,307.93
2018-11-11T08:22:15.625Z,303.23
2018-11-11T08:24:46.176Z,392.83
2018-11-11T08:27:16.690Z,343.73
2018-11-11T08:29:47.303Z,343.97
2018-11-11T08:32:17.893Z,326.23
2018-11-11T08:34:48.373Z,303.60
2018-11-11T08:37:18.904Z,297.17
2018-11-11T08:39:49.590Z,424.33
2018-11-11T08:42:20.248Z,373.03
2018-11-11T08:44:51.024Z,335.43
2018-11-11T08:47:21.481Z,390.77
2018-11-11T08:49:52.306Z,399.63
2018-11-11T08:52:22.850Z,349.33
2018-11-11T08:54:53.361Z,348.67
2018-11-11T08:57:23.946Z,368.93
2018-11-11T08:59:54.797Z,417.10
2018-11-11T09:02:25.341Z,376.73
2018-11-11T09:04:55.955Z,358.60
2018-11-11T09:07:26.506Z,309.43
2018-11-11T09:09:57.708Z,290.75
2018-11-11T09:12:28.162Z,352.48
2018-11-11T09:15:08.046Z,384.90
2018-11-11T09:17:38.576Z,266.20
2018-11-11T09:20:09.717Z,250.32
2018-11-11T09:22:40.377Z,263.80
2018-11-11T09:25:11.300Z,245.67
2018-11-11T09:27:42.752Z,240.60
2018-11-11T09:30:14.823Z,256.38
2018-11-11T09:32:45.480Z,188.07
2018-11-11T09:35:15.989Z,213.15
2018-11-11T09:37:46.492Z,187.00
2018-11-11T09:40:17.000Z,172.07
2018-11-11T09:42:47.550Z,161.77
2018-11-11T09:45:18.019Z,151.50
2018-11-11T09:47:48.561Z,144.15
2018-11-11T09:50:19.080Z,133.07
2018-11-11T09:52:49.695Z,115.50
2018-11-11T09:55:20.680Z,106.00
2018-11-11T09:57:51.247Z,112.70
2018-11-11T10:00:22.867Z,108.03
2018-11-11T10:03:27.224Z,107.60
2018-11-11T10:06:28.751Z,85.03
2018-11-11T10:09:16.373Z,78.22
2018-11-11T10:11:54.115Z,77.05
2018-11-11T10:14:42.049Z,79.40
2018-11-11T10:17:49.323Z,80.05
2018-11-11T10:20:41.727Z,84.90
2018-11-11T10:23:30.928Z,82.08
2018-11-11T10:26:22.826Z,83.55
2018-11-11T10:29:07.234Z,85.45
2018-11-11T10:31:56.791Z,84.10
2018-11-11T10:34:33.274Z,89.00
2018-11-11T10:37:07.019Z,84.60
2018-11-11T10:40:11.263Z,84.75
2018-11-11T10:42:55.449Z,87.67
2018-11-11T10:46:00.873Z,98.42
2018-11-11T10:48:34.923Z,101.38
2018-11-11T10:51:06.429Z,100.50
2018-11-11T10:53:37.054Z,95.45
2018-11-11T10:56:07.592Z,96.80
2018-11-11T10:58:38.093Z,91.15
2018-11-11T11:01:26.035Z,83.15
2018-11-11T11:03:56.498Z,83.92
2018-11-11T11:06:44.129Z,79.87
2018-11-11T11:09:15.524Z,83.15
2018-11-11T11:11:46.053Z,79.10
2018-11-11T11:14:16.506Z,79.45
2018-11-11T11:16:47.009Z,74.60
2018-11-11T11:19:17.504Z,77.12
2018-11-11T11:21:47.945Z,79.90
2018-11-11T11:24:18.458Z,81.75
2018-11-11T11:26:48.955Z,80.00
2018-11-11T11:29:19.463Z,77.40
2018-11-11T11:31:50.026Z,77.27
2018-11-11T11:34:20.460Z,77.95
2018-11-11T11:36:50.965Z,78.05
2018-11-11T11:39:21.422Z,75.60
2018-11-11T11:41:51.881Z,71.12
2018-11-11T11:44:22.380Z,77.82
2018-11-11T11:46:52.919Z,84.52
2018-11-11T11:49:23.356Z,81.00
2018-11-11T11:51:53.981Z,81.57
2018-11-11T11:54:24.448Z,87.78
2018-11-11T11:56:55.471Z,87.37
2018-11-11T11:59:25.963Z,85.20
2018-11-11T12:01:56.597Z,89.90
2018-11-11T12:04:27.090Z,92.27
2018-11-11T12:06:58.129Z,95.28
2018-11-11T12:09:28.583Z,98.72
2018-11-11T12:11:59.061Z,96.95
2018-11-11T12:14:29.565Z,101.90
2018-11-11T12:17:00.319Z,100.92
2018-11-11T12:19:30.749Z,107.45
2018-11-11T12:22:01.207Z,115.88
2018-11-11T12:24:32.216Z,119.00
2018-11-11T12:27:02.688Z,105.75
2018-11-11T12:29:33.356Z,99.28
2018-11-11T12:32:03.875Z,103.12
2018-11-11T12:34:34.549Z,106.45
2018-11-11T12:37:05.324Z,102.10
2018-11-11T12:39:35.723Z,104.17
2018-11-11T12:42:06.151Z,112.05
2018-11-11T12:44:36.653Z,114.28
2018-11-11T12:47:09.998Z,106.15
2018-11-11T12:49:40.504Z,103.70
2018-11-11T12:52:10.992Z,115.28
2018-11-11T12:54:41.521Z,116.62
2018-11-11T12:57:12.022Z,142.22
2018-11-11T12:59:42.528Z,118.13
2018-11-11T13:02:13.012Z,103.87
2018-11-11T13:04:43.533Z,106.17
2018-11-11T13:07:14.004Z,106.43
2018-11-11T13:09:44.451Z,107.15
2018-11-11T13:12:15.045Z,115.77
2018-11-11T13:14:45.418Z,113.12
2018-11-11T13:17:16.164Z,116.45
2018-11-11T13:19:46.667Z,104.47
2018-11-11T13:22:17.178Z,106.17
2018-11-11T13:24:47.512Z,113.35
2018-11-11T13:27:18.064Z,117.72
2018-11-11T13:29:48.619Z,109.85
2018-11-11T13:32:19.075Z,109.12
2018-11-11T13:34:49.562Z,109.37
2018-11-11T13:37:19.999Z,113.55
2018-11-11T13:39:50.487Z,113.20
2018-11-11T13:42:20.952Z,112.03
2018-11-11T13:44:51.424Z,110.57
2018-11-11T13:47:21.898Z,108.20
2018-11-11T13:49:52.476Z,111.97
2018-11-11T13:52:22.963Z,109.85
2018-11-11T13:54:53.530Z,110.08
2018-11-11T13:57:24.014Z,120.72
2018-11-11T13:59:54.524Z,119.72
2018-11-11T14:02:25.052Z,109.60
2018-11-11T14:04:55.543Z,121.45
2018-11-11T14:07:26.071Z,112.55
2018-11-11T14:09:56.781Z,123.30
2018-11-11T14:12:27.272Z,137.25
2018-11-11T14:14:57.755Z,156.35
2018-11-11T14:17:28.196Z,162.65
2018-11-11T14:19:58.715Z,157.72
2018-11-11T14:22:29.213Z,151.68
2018-11-11T14:24:59.695Z,140.55
2018-11-11T14:27:30.621Z,142.28
2018-11-11T14:30:01.079Z,163.68
2018-11-11T14:32:31.542Z,206.20
2018-11-11T14:35:02.061Z,191.57
2018-11-11T14:37:32.552Z,177.12
2018-11-11T14:40:03.033Z,157.45
2018-11-11T14:42:33.559Z,150.50
2018-11-11T14:45:04.070Z,170.35
2018-11-11T14:47:34.541Z,170.60
2018-11-11T14:50:05.830Z,139.57
2018-11-11T14:52:36.458Z,126.38
2018-11-11T14:55:12.701Z,142.13
2018-11-11T14:57:43.332Z,139.18
2018-11-11T15:00:16.480Z,142.53
2018-11-11T15:03:22.155Z,142.37
2018-11-11T15:05:52.780Z,139.88
2018-11-11T15:08:23.276Z,146.70
2018-11-11T15:10:54.071Z,183.78
2018-11-11T15:13:24.872Z,218.40
2018-11-11T15:15:55.475Z,221.90
2018-11-11T15:18:27.125Z,197.22
2018-11-11T15:20:58.103Z,191.57
2018-11-11T15:23:28.524Z,195.15
2018-11-11T15:25:58.975Z,174.10
2018-11-11T15:28:29.936Z,165.00
2018-11-11T15:31:01.034Z,157.88
2018-11-11T15:33:31.424Z,159.95
2018-11-11T15:36:01.894Z,163.80
2018-11-11T15:38:32.401Z,158.15
2018-11-11T15:41:03.045Z,163.90
2018-11-11T15:43:33.607Z,172.43
2018-11-11T15:46:04.028Z,212.78
2018-11-11T15:48:34.515Z,176.53
2018-11-11T15:51:04.985Z,163.45
2018-11-11T15:53:35.454Z,172.95
2018-11-11T15:56:05.983Z,173.28
2018-11-11T15:58:36.491Z,165.90
2018-11-11T16:01:07.105Z,168.00
2018-11-11T16:03:37.619Z,159.50
2018-11-11T16:06:08.271Z,148.22
2018-11-11T16:08:38.832Z,152.93
2018-11-11T16:11:09.276Z,158.52
2018-11-11T16:13:39.725Z,167.82
2018-11-11T16:16:10.953Z,175.60
2018-11-11T16:18:41.353Z,175.57
2018-11-11T16:21:11.800Z,171.82
2018-11-11T16:23:42.363Z,193.97
2018-11-11T16:26:12.791Z,179.53
2018-11-11T16:28:43.250Z,195.20
2018-11-11T16:31:17.287Z,199.70
2018-11-11T16:33:47.832Z,217.33
2018-11-11T16:36:20.319Z,176.13
2018-11-11T16:38:50.706Z,169.73
2018-11-11T16:41:27.424Z,217.18
2018-11-11T16:44:04.072Z,244.70
2018-11-11T16:46:36.060Z,227.57
2018-11-11T16:49:06.828Z,304.07
2018-11-11T16:51:37.298Z,362.73
2018-11-11T16:54:07.855Z,430.03
2018-11-11T16:56:38.232Z,506.47
2018-11-11T16:59:08.848Z,559.97
2018-11-11T17:01:39.339Z,510.77
2018-11-11T17:04:09.847Z,560.03
2018-11-11T17:06:40.326Z,535.23
2018-11-11T17:09:13.533Z,546.30
2018-11-11T17:11:44.035Z,524.52
2018-11-11T17:14:14.568Z,555.43
2018-11-11T17:16:45.061Z,592.53
2018-11-11T17:19:16.022Z,651.80
2018-11-11T17:21:46.887Z,724.77
2018-11-11T17:24:17.155Z,721.07
2018-11-11T17:26:48.501Z,666.87
2018-11-11T17:29:19.272Z,661.30
2018-11-11T17:31:49.768Z,747.67
2018-11-11T17:34:21.180Z,854.80
2018-11-11T17:36:51.687Z,853.80
2018-11-11T17:39:22.326Z,833.00
2018-11-11T17:41:53.085Z,757.03
2018-11-11T17:44:23.607Z,714.63
2018-11-11T17:46:54.189Z,744.57
2018-11-11T17:49:24.788Z,788.80
2018-11-11T17:51:55.325Z,737.43
2018-11-11T17:54:26.106Z,825.50
2018-11-11T17:56:56.917Z,775.27
2018-11-11T17:59:27.456Z,733.90
2018-11-11T18:01:57.976Z,770.67
2018-11-11T18:04:28.503Z,741.23
2018-11-11T18:06:58.998Z,763.87
2018-11-11T18:09:29.565Z,782.90
2018-11-11T18:12:00.106Z,774.37
2018-11-11T18:14:30.591Z,787.42
2018-11-11T18:17:01.075Z,783.93
2018-11-11T18:19:31.516Z,790.43
2018-11-11T18:22:01.996Z,766.07
2018-11-11T18:24:32.696Z,793.27
2018-11-11T18:27:04.138Z,758.87
2018-11-11T18:29:34.556Z,850.50
2018-11-11T18:32:05.075Z,1336.90
2018-11-11T18:34:35.606Z,1316.53
2018-11-11T18:37:06.062Z,1319.00
2018-11-11T18:39:36.523Z,1236.47
2018-11-11T18:42:07.111Z,1168.73
2018-11-11T18:44:37.657Z,1102.20
2018-11-11T18:47:08.114Z,1075.27
2018-11-11T18:49:38.572Z,974.83
2018-11-11T18:52:09.381Z,943.77
2018-11-11T18:54:39.859Z,900.60
2018-11-11T18:57:10.475Z,953.50
2018-11-11T18:59:40.759Z,774.33
2018-11-11T19:02:11.285Z,783.70
2018-11-11T19:04:41.736Z,852.60
2018-11-11T19:07:12.324Z,883.03
2018-11-11T19:09:42.773Z,917.00
2018-11-11T19:12:13.306Z,847.97
2018-11-11T19:14:43.774Z,862.33
2018-11-11T19:17:14.320Z,827.73
2018-11-11T19:19:45.096Z,916.60
2018-11-11T19:22:15.589Z,905.47
2018-11-11T19:24:46.272Z,1107.90
2018-11-11T19:27:16.689Z,1165.63
2018-11-11T19:29:47.295Z,1305.27
2018-11-11T19:32:17.785Z,1719.63
2018-11-11T19:34:48.288Z,1608.67
2018-11-11T19:37:18.782Z,1725.87
2018-11-11T19:39:49.246Z,1999.90
2018-11-11T19:42:19.699Z,1999.90
2018-11-11T19:44:50.196Z,1999.90
2018-11-11T19:47:20.765Z,1999.90
2018-11-11T19:49:52.324Z,1999.90
2018-11-11T19:52:22.945Z,1999.90
2018-11-11T19:54:53.517Z,1999.90
2018-11-11T19:57:24.059Z,1999.90
2018-11-11T19:59:54.529Z,1999.90
2018-11-11T20:02:25.272Z,1999.90
2018-11-11T20:04:55.914Z,1841.93
2018-11-11T20:07:26.445Z,1506.60
2018-11-11T20:09:58.084Z,1298.57
2018-11-11T20:12:29.135Z,1328.03
2018-11-11T20:15:02.325Z,1165.07
2018-11-11T20:17:32.830Z,1216.60
2018-11-11T20:20:03.296Z,1022.50
2018-11-11T20:22:33.865Z,972.50
2018-11-11T20:25:04.458Z,1027.00
2018-11-11T20:27:34.984Z,887.20
2018-11-11T20:30:07.270Z,903.40
2018-11-11T20:32:39.134Z,842.77
2018-11-11T20:35:10.657Z,827.80
2018-11-11T20:37:41.152Z,856.13
2018-11-11T20:40:18.943Z,780.10
2018-11-11T20:42:49.852Z,766.37
2018-11-11T20:45:21.737Z,809.97
2018-11-11T20:47:52.706Z,706.27
2018-11-11T20:50:24.534Z,695.97
2018-11-11T20:52:56.837Z,687.70
2018-11-11T20:55:27.454Z,735.37
2018-11-11T20:57:59.439Z,742.37
2018-11-11T21:00:37.220Z,789.30
2018-11-11T21:03:08.536Z,1115.13
2018-11-11T21:05:39.179Z,985.53
2018-11-11T21:08:09.753Z,792.30
2018-11-11T21:10:40.176Z,800.07
2018-11-11T21:13:10.590Z,840.43
2018-11-11T21:15:41.179Z,853.40
2018-11-11T21:18:12.059Z,997.77
2018-11-11T21:20:42.584Z,992.37
2018-11-11T21:23:13.035Z,1010.57
2018-11-11T21:25:43.489Z,968.20
2018-11-11T21:28:13.929Z,948.60
2018-11-11T21:30:44.426Z,949.83
2018-11-11T21:33:14.860Z,929.43
2018-11-11T21:35:45.302Z,884.30
2018-11-11T21:38:15.836Z,907.80
2018-11-11T21:40:46.673Z,914.80
2018-11-11T21:43:17.167Z,809.83
2018-11-11T21:45:47.693Z,784.63
2018-11-11T21:48:18.190Z,847.63
2018-11-11T21:50:48.754Z,826.10
2018-11-11T21:53:41.261Z,719.83
2018-11-11T21:56:11.852Z,547.33
2018-11-11T21:58:42.382Z,625.40
2018-11-11T22:01:12.791Z,691.70
2018-11-11T22:03:43.275Z,695.57
2018-11-11T22:06:13.785Z,678.10
2018-11-11T22:08:44.267Z,674.40
2018-11-11T22:11:14.751Z,586.03
2018-11-11T22:13:45.213Z,602.70
2018-11-11T22:16:15.725Z,701.40
2018-11-11T22:18:46.194Z,688.27
2018-11-11T22:21:16.656Z,546.23
2018-11-11T22:23:47.068Z,601.43
2018-11-11T22:26:17.605Z,606.60
2018-11-11T22:28:49.080Z,636.70
2018-11-11T22:31:19.542Z,640.57
2018-11-11T22:33:50.035Z,637.37
2018-11-11T22:36:20.522Z,603.63
2018-11-11T22:38:50.962Z,600.67
2018-11-11T22:41:21.442Z,622.10
2018-11-11T22:43:51.925Z,579.17
2018-11-11T22:46:22.410Z,602.17
2018-11-11T22:48:52.843Z,579.40
2018-11-11T22:51:23.317Z,564.33
2018-11-11T22:53:53.790Z,622.80
2018-11-11T22:56:24.304Z,608.07
2018-11-11T22:58:54.811Z,622.63
2018-11-11T23:01:25.300Z,688.63
2018-11-11T23:03:55.690Z,591.57
2018-11-11T23:06:26.146Z,688.50
2018-11-11T23:08:56.575Z,734.70
2018-11-11T23:11:27.084Z,887.00
2018-11-11T23:13:57.530Z,752.27
2018-11-11T23:16:28.043Z,904.00
2018-11-11T23:18:58.509Z,725.77
2018-11-11T23:21:29.073Z,812.60
2018-11-11T23:23:59.512Z,648.70
2018-11-11T23:26:29.955Z,960.13
2018-11-11T23:29:00.505Z,1001.13
2018-11-11T23:31:30.819Z,785.80
2018-11-11T23:34:01.369Z,795.83
2018-11-11T23:36:31.833Z,1185.67
2018-11-11T23:39:02.273Z,624.17
2018-11-11T23:41:32.821Z,824.90
2018-11-11T23:44:03.272Z,617.20
2018-11-11T23:46:33.949Z,778.70
2018-11-11T23:49:04.348Z,736.33
2018-11-11T23:51:34.854Z,784.47
2018-11-11T23:54:05.283Z,720.47
2018-11-11T23:56:35.862Z,783.13
2018-11-11T23:59:06.285Z,792.47
